createdAt,value
2022-09-24T00:04:18.976Z,8.21
2022-09-24T00:09:22.676Z,8.17
2022-09-24T00:14:25.480Z,8.11
2022-09-24T00:19:28.120Z,8.11
2022-09-24T00:24:49.648Z,8.12
2022-09-24T00:29:52.287Z,8.06
2022-09-24T00:34:54.978Z,8.01
2022-09-24T00:39:57.898Z,7.99
2022-09-24T00:45:01.134Z,7.96
2022-09-24T00:50:08.228Z,7.89
2022-09-24T00:55:13.434Z,7.86
2022-09-24T01:00:16.599Z,7.87
2022-09-24T01:05:19.604Z,7.84
2022-09-24T01:10:49.019Z,7.79
2022-09-24T01:16:07.134Z,7.76
2022-09-24T01:21:28.227Z,7.73
2022-09-24T01:26:37.272Z,7.65
2022-09-24T01:31:47.058Z,7.59
2022-09-24T01:36:51.064Z,7.51
2022-09-24T01:41:54.189Z,7.41
2022-09-24T01:46:56.911Z,7.29
2022-09-24T01:52:07.641Z,7.14
2022-09-24T01:57:17.486Z,7.00
2022-09-24T02:02:29.208Z,6.91
2022-09-24T02:07:45.641Z,6.82
2022-09-24T02:12:57.382Z,6.69
2022-09-24T02:18:05.882Z,6.58
2022-09-24T02:23:11.931Z,6.47
2022-09-24T02:28:14.800Z,6.30
2022-09-24T02:33:39.095Z,6.22
2022-09-24T02:38:43.212Z,6.16
2022-09-24T02:43:46.346Z,6.07
2022-09-24T02:48:49.001Z,5.99
2022-09-24T02:53:51.765Z,5.95
2022-09-24T02:58:54.479Z,5.90
2022-09-24T03:03:57.832Z,5.82
2022-09-24T03:09:03.499Z,5.71
2022-09-24T03:14:06.684Z,5.62
2022-09-24T03:19:09.365Z,5.54
2022-09-24T03:24:12.108Z,5.47
2022-09-24T03:29:14.847Z,5.42
2022-09-24T03:34:17.513Z,5.36
2022-09-24T03:39:20.204Z,5.31
2022-09-24T03:44:22.913Z,5.28
2022-09-24T03:49:25.922Z,5.23
2022-09-24T03:54:28.815Z,5.17
2022-09-24T03:59:31.497Z,5.13
2022-09-24T04:04:34.184Z,5.10
2022-09-24T04:09:36.819Z,5.09
2022-09-24T04:14:39.503Z,5.10
2022-09-24T04:19:42.240Z,5.15
2022-09-24T04:24:45.412Z,5.21
2022-09-24T04:29:48.458Z,5.22
2022-09-24T04:34:51.101Z,5.23
2022-09-24T04:39:53.756Z,5.24
2022-09-24T04:44:56.456Z,5.19
2022-09-24T04:50:00.557Z,5.16
2022-09-24T04:55:05.180Z,5.22
2022-09-24T05:00:14.660Z,5.30
2022-09-24T05:05:17.775Z,5.37
2022-09-24T05:10:20.485Z,5.44
2022-09-24T05:15:23.561Z,5.52
2022-09-24T05:20:26.404Z,5.64
2022-09-24T05:25:29.163Z,5.76
2022-09-24T05:30:31.820Z,5.94
2022-09-24T05:35:34.565Z,6.12
2022-09-24T05:40:49.211Z,6.24
2022-09-24T05:45:52.865Z,6.38
2022-09-24T05:50:55.619Z,6.55
2022-09-24T05:55:59.078Z,6.72
2022-09-24T06:01:02.106Z,6.87
2022-09-24T06:06:05.000Z,7.08
2022-09-24T06:11:08.634Z,7.36
2022-09-24T06:16:13.054Z,7.62
2022-09-24T06:21:17.932Z,7.90
2022-09-24T06:26:20.700Z,8.23
2022-09-24T06:31:23.451Z,8.52
2022-09-24T06:36:26.513Z,8.78
2022-09-24T06:41:29.178Z,8.94
2022-09-24T06:46:31.976Z,9.16
2022-09-24T06:51:34.807Z,9.37
2022-09-24T06:56:37.496Z,9.61
2022-09-24T07:01:40.355Z,9.77
2022-09-24T07:07:01.844Z,9.92
2022-09-24T07:12:06.182Z,10.19
2022-09-24T07:17:08.818Z,10.43
2022-09-24T07:22:11.472Z,10.72
2022-09-24T07:27:15.227Z,10.96
2022-09-24T07:32:17.897Z,11.15
2022-09-24T07:37:20.595Z,11.33
2022-09-24T07:42:23.690Z,11.57
2022-09-24T07:47:26.505Z,11.75
2022-09-24T07:52:29.335Z,11.93
2022-09-24T07:57:32.226Z,11.98
2022-09-24T08:02:34.852Z,12.06
2022-09-24T08:07:37.608Z,12.24
2022-09-24T08:12:40.294Z,12.54
2022-09-24T08:17:43.207Z,13.01
2022-09-24T08:22:45.807Z,13.47
2022-09-24T08:27:48.611Z,13.86
2022-09-24T08:32:51.423Z,14.23
2022-09-24T08:37:54.948Z,14.53
2022-09-24T08:43:25.757Z,14.80
2022-09-24T08:48:33.064Z,15.08
2022-09-24T08:54:04.357Z,15.28
2022-09-24T08:59:33.028Z,15.41
2022-09-24T09:04:54.939Z,15.40
2022-09-24T09:10:00.702Z,15.39
2022-09-24T09:15:26.219Z,15.47
2022-09-24T09:20:56.587Z,15.41
2022-09-24T09:26:00.192Z,15.27
2022-09-24T09:31:22.538Z,15.27
2022-09-24T09:36:25.181Z,15.33
2022-09-24T09:41:39.022Z,15.33
2022-09-24T09:46:49.890Z,15.37
2022-09-24T09:51:57.476Z,15.41
2022-09-24T09:57:02.562Z,15.50
2022-09-24T10:02:11.860Z,15.69
2022-09-24T10:07:17.574Z,15.89
2022-09-24T10:12:22.685Z,15.92
2022-09-24T10:17:30.410Z,15.92
2022-09-24T10:22:33.330Z,16.13
2022-09-24T10:27:37.528Z,16.40
2022-09-24T10:32:41.422Z,16.63
2022-09-24T10:37:52.346Z,16.92
2022-09-24T10:43:00.627Z,16.92
2022-09-24T10:48:19.016Z,16.95
2022-09-24T10:53:53.942Z,17.28
2022-09-24T10:59:07.823Z,17.49
2022-09-24T11:04:10.416Z,17.64
2022-09-24T11:09:21.851Z,17.74
2022-09-24T11:14:46.685Z,17.77
2022-09-24T11:20:06.756Z,17.92
2022-09-24T11:25:26.241Z,17.74
2022-09-24T11:30:47.551Z,17.65
2022-09-24T11:36:08.637Z,17.67
2022-09-24T11:41:25.745Z,17.72
2022-09-24T11:46:47.328Z,17.68
2022-09-24T11:52:08.739Z,17.63
2022-09-24T11:57:27.911Z,17.64
2022-09-24T12:02:36.960Z,17.37
2022-09-24T12:08:03.247Z,17.58
2022-09-24T12:13:33.400Z,17.88
2022-09-24T12:18:52.538Z,18.39
2022-09-24T12:24:02.929Z,18.54
2022-09-24T12:30:02.964Z,18.64
2022-09-24T12:35:55.323Z,18.55
2022-09-24T12:41:01.395Z,18.53
2022-09-24T12:46:08.915Z,18.31
2022-09-24T12:51:12.833Z,18.12
2022-09-24T12:56:26.916Z,18.20
2022-09-24T13:01:32.462Z,18.40
2022-09-24T13:06:37.754Z,18.42
2022-09-24T13:11:40.833Z,18.43
2022-09-24T13:16:49.109Z,18.31
2022-09-24T13:21:57.770Z,17.95
2022-09-24T13:27:29.890Z,17.62
2022-09-24T13:32:43.490Z,17.21
2022-09-24T13:38:09.181Z,16.87
2022-09-24T13:43:40.800Z,16.84
2022-09-24T13:48:53.743Z,16.88
2022-09-24T13:54:07.045Z,16.64
2022-09-24T13:59:12.711Z,16.51
2022-09-24T14:04:23.480Z,16.51
2022-09-24T14:09:36.215Z,16.52
2022-09-24T14:14:47.054Z,16.46
2022-09-24T14:19:55.378Z,16.36
2022-09-24T14:25:02.779Z,16.30
2022-09-24T14:30:07.959Z,16.31
2022-09-24T14:35:10.695Z,16.26
2022-09-24T14:40:14.907Z,16.20
2022-09-24T14:45:34.369Z,16.02
2022-09-24T14:50:40.152Z,15.90
2022-09-24T14:55:46.407Z,15.81
2022-09-24T15:01:01.926Z,15.71
2022-09-24T15:06:12.484Z,15.54
2022-09-24T15:11:20.555Z,15.36
2022-09-24T15:16:34.559Z,15.21
2022-09-24T15:21:37.403Z,15.06
2022-09-24T15:26:43.680Z,14.88
2022-09-24T15:31:47.329Z,14.65
2022-09-24T15:36:55.884Z,14.46
2022-09-24T15:41:59.024Z,14.29
2022-09-24T15:47:01.584Z,14.10
2022-09-24T15:52:14.146Z,13.86
2022-09-24T15:57:16.978Z,13.55
2022-09-24T16:02:29.179Z,13.24
2022-09-24T16:07:31.965Z,13.00
2022-09-24T16:12:34.974Z,12.79
2022-09-24T16:17:38.603Z,12.58
2022-09-24T16:22:41.258Z,12.33
2022-09-24T16:27:47.449Z,12.03
2022-09-24T16:32:50.942Z,11.73
2022-09-24T16:37:53.621Z,11.47
2022-09-24T16:42:56.617Z,11.22
2022-09-24T16:47:59.950Z,10.93
2022-09-24T16:53:02.830Z,10.68
2022-09-24T16:58:05.616Z,10.48
2022-09-24T17:03:11.357Z,10.35
2022-09-24T17:08:14.161Z,10.22
2022-09-24T17:13:17.650Z,10.06
2022-09-24T17:18:20.810Z,9.96
2022-09-24T17:23:23.429Z,9.88
2022-09-24T17:28:26.107Z,9.76
2022-09-24T17:33:42.923Z,9.65
2022-09-24T17:38:47.481Z,9.57
2022-09-24T17:43:51.406Z,9.50
2022-09-24T17:48:56.362Z,9.42
2022-09-24T17:54:01.628Z,9.30
2022-09-24T17:59:06.463Z,9.23
2022-09-24T18:04:15.927Z,9.14
2022-09-24T18:09:19.342Z,9.02
2022-09-24T18:14:23.302Z,8.92
2022-09-24T18:19:26.279Z,8.77
2022-09-24T18:24:29.276Z,8.60
2022-09-24T18:29:31.992Z,8.43
2022-09-24T18:34:34.654Z,8.33
2022-09-24T18:39:37.372Z,8.28
2022-09-24T18:44:40.796Z,8.21
2022-09-24T18:49:44.105Z,8.11
2022-09-24T18:54:46.754Z,8.07
2022-09-24T18:59:49.495Z,8.07
2022-09-24T19:04:53.226Z,8.07
2022-09-24T19:09:55.899Z,8.07
2022-09-24T19:15:00.565Z,8.08
2022-09-24T19:20:03.593Z,8.02
2022-09-24T19:25:07.174Z,7.94
2022-09-24T19:30:10.405Z,7.89
2022-09-24T19:35:13.714Z,7.85
2022-09-24T19:40:16.518Z,7.77
2022-09-24T19:45:19.417Z,7.66
2022-09-24T19:50:22.283Z,7.58
2022-09-24T19:55:28.500Z,7.53
2022-09-24T20:00:31.578Z,7.48
2022-09-24T20:05:34.514Z,7.41
2022-09-24T20:10:37.367Z,7.36
2022-09-24T20:15:42.009Z,7.30
2022-09-24T20:20:44.699Z,7.24
2022-09-24T20:26:13.580Z,7.22
2022-09-24T20:31:20.996Z,7.17
2022-09-24T20:36:24.966Z,7.13
2022-09-24T20:41:28.782Z,7.12
2022-09-24T20:46:32.019Z,7.10
2022-09-24T20:51:35.084Z,7.07
2022-09-24T20:56:37.712Z,7.04
2022-09-24T21:01:41.156Z,6.99
2022-09-24T21:06:43.955Z,6.95
2022-09-24T21:11:50.568Z,6.91
2022-09-24T21:16:55.280Z,6.86
2022-09-24T21:21:59.452Z,6.85
2022-09-24T21:27:02.125Z,6.82
2022-09-24T21:32:04.960Z,6.80
2022-09-24T21:37:08.247Z,6.77
2022-09-24T21:42:11.479Z,6.78
2022-09-24T21:47:14.212Z,6.74
2022-09-24T21:52:16.861Z,6.68
2022-09-24T21:57:19.561Z,6.68
2022-09-24T22:02:22.343Z,6.71
2022-09-24T22:07:25.099Z,6.71
2022-09-24T22:12:27.747Z,6.73
2022-09-24T22:17:30.450Z,6.75
2022-09-24T22:22:33.096Z,6.74
2022-09-24T22:27:35.725Z,6.67
2022-09-24T22:32:38.369Z,6.58
2022-09-24T22:37:41.456Z,6.52
2022-09-24T22:42:44.085Z,6.48
2022-09-24T22:47:47.685Z,6.47
2022-09-24T22:52:51.666Z,6.47
2022-09-24T22:57:54.807Z,6.40
2022-09-24T23:02:57.456Z,6.36
2022-09-24T23:08:01.027Z,6.31
2022-09-24T23:13:03.702Z,6.22
2022-09-24T23:18:06.356Z,6.14
2022-09-24T23:23:09.018Z,6.11
2022-09-24T23:28:11.712Z,6.06
2022-09-24T23:33:14.823Z,5.98
2022-09-24T23:38:17.475Z,5.91
2022-09-24T23:43:20.753Z,5.86
2022-09-24T23:48:23.442Z,5.86
2022-09-24T23:53:27.268Z,5.84
2022-09-24T23:58:30.594Z,5.80
